Flight Track Log - Related Links

Times and Time Zones

All times are in EDT time to prevent confusion due to time zone crossing. See the EJA975 flight status page for this flight to view local times or setup timezone preferences in your user account.

Time Position Orientation Groundspeed Altitude Reporting Facility
EDT Latitude Longitude Course Direction KTS MPH feet Rate Location/Type
Sun 12:06:13 PM 47.5575 -122.3278 328° Northwest 188 216 1,600  Level Seattle Center
Sun 12:07:14 PM 47.6031 -122.3706 328° Northwest 195 224 5,100 3,590 Climbing Seattle Center
Sun 12:08:15 PM 47.6422 -122.4525 305° West 230 265 8,900 1,918 Climbing Seattle Center
Sun 12:09:16 PM 47.6931 -122.4206 23° Northeast 243 280 9,000 246 Climbing Seattle Center
Sun 12:10:17 PM 47.7314 -122.3156 61° Northeast 303 349 9,400 1,565 Climbing Seattle Center
Sun 12:12:20 PM 47.6425 -122.0717 118° Southeast 361 415 13,800 2,120 Climbing Seattle Center
Sun 12:13:21 PM 47.5681 -121.9453 131° Southeast 378 435 15,900 1,918 Climbing Seattle Center
Sun 12:14:22 PM 47.5272 -121.7900 111° Southeast 404 465 17,700 1,574 Climbing Seattle Center
Sun 12:15:23 PM 47.4939 -121.6586 111° Southeast 408 470 19,100 1,574 Climbing Seattle Center
Sun 12:16:24 PM 47.4464 -121.4678 110° East 418 481 20,900 1,475 Climbing Seattle Center
Sun 12:17:25 PM 47.4050 -121.3042 110° East 428 493 22,100 1,220 Climbing Seattle Center
Sun 12:18:27 PM 47.3628 -121.1364 110° East 439 505 23,400 1,268 Climbing Seattle Center
Sun 12:19:28 PM 47.3183 -120.9647 111° Southeast 452 520 24,700 1,180 Climbing Seattle Center
Sun 12:20:29 PM 47.2744 -120.7931 111° Southeast 463 533 25,800 1,081 Climbing Seattle Center
Sun 12:22:09 PM 47.1883 -120.4614 111° Southeast 485 558 27,600 1,037 Climbing Salt Lake Center
Sun 12:23:11 PM 47.1381 -120.2700 111° Southeast 496 571 28,600 1,016 Climbing Salt Lake Center
Sun 12:24:13 PM 47.0869 -120.0775 111° Southeast 505 581 29,700 1,104 Climbing Salt Lake Center
Sun 12:25:16 PM 47.0350 -119.8831 111° Southeast 511 588 30,900 1,440 Climbing Salt Lake Center
Sun 12:26:18 PM 46.9828 -119.6897 112° Southeast 513 590 32,700 1,742 Climbing Salt Lake Center
Sun 12:27:20 PM 46.9303 -119.4981 112° Southeast 511 588 34,500 1,984 Climbing Salt Lake Center
Sun 12:28:22 PM 46.8692 -119.2703 111° Southeast 508 585 36,800 1,984 Climbing Salt Lake Center
Sun 12:29:24 PM 46.8172 -119.0833 112° Southeast 502 578 38,600 1,790 Climbing Salt Lake Center
Sun 12:30:26 PM 46.7658 -118.8992 112° Southeast 497 572 40,500 1,161 Climbing Salt Lake Center
Sun 12:31:28 PM 46.7133 -118.7153 113° Southeast 494 568 41,000 242 Climbing Salt Lake Center
Sun 12:32:30 PM 46.6581 -118.5206 112° Southeast 516 594 41,000  Level Salt Lake Center
Sun 12:33:32 PM 46.5892 -118.2831 113° Southeast 533 613 41,000  Level Salt Lake Center
Sun 12:34:34 PM 46.5317 -118.0828 113° Southeast 540 621 41,000  Level Salt Lake Center
Sun 12:35:47 PM 46.4625 -117.8439 113° Southeast 540 621 41,000  Level Seattle Center
Sun 12:36:48 PM 46.4042 -117.6447 113° Southeast 541 623 41,000  Level Seattle Center
Sun 12:37:49 PM 46.3450 -117.4472 113° Southeast 540 621 41,000  Level Seattle Center
Sun 12:38:50 PM 46.2847 -117.2483 114° Southeast 542 624 41,000  Level Seattle Center
Sun 12:39:52 PM 46.2244 -117.0506 114° Southeast 541 623 41,000  Level Seattle Center
Sun 12:40:53 PM 46.1647 -116.8481 113° Southeast 548 631 41,000  Level Seattle Center
Sun 12:41:54 PM 46.0928 -116.6097 113° Southeast 545 627 41,000  Level Seattle Center
Sun 12:42:55 PM 46.0322 -116.4128 114° Southeast 542 624 41,000  Level Seattle Center
Sun 12:43:57 PM 45.9700 -116.2167 114° Southeast 542 624 41,000  Level Seattle Center
Sun 12:44:54 PM 45.9069 -116.0139 114° Southeast 542 624 41,000  Level Salt Lake Center
Sun 12:45:56 PM 45.8478 -115.8247 114° Southeast 544 626 41,000  Level Salt Lake Center
Sun 12:46:58 PM 45.7875 -115.6372 115° Southeast 542 624 41,000  Level Salt Lake Center
Sun 12:48:00 PM 45.7167 -115.4144 114° Southeast 545 627 41,000  Level Salt Lake Center
Sun 12:49:02 PM 45.6558 -115.2267 115° Southeast 544 626 41,000  Level Salt Lake Center
Sun 12:50:04 PM 45.5847 -115.0075 115° Southeast 544 626 41,000  Level Salt Lake Center
Sun 12:51:06 PM 45.5219 -114.8186 115° Southeast 546 628 41,000  Level Salt Lake Center
Sun 12:52:08 PM 45.4506 -114.5992 115° Southeast 547 629 41,000  Level Salt Lake Center
Sun 12:53:10 PM 45.3881 -114.4122 115° Southeast 546 628 41,000  Level Salt Lake Center
Sun 12:54:12 PM 45.3150 -114.1936 115° Southeast 547 629 41,000  Level Salt Lake Center
Sun 12:56:12 PM 45.1872 -113.8200 116° Southeast 544 626 41,000  Level Seattle Center
Sun 12:57:18 PM 45.1108 -113.5983 116° Southeast 550 633 41,000  Level Salt Lake Center
Sun 12:58:20 PM 45.0478 -113.4131 116° Southeast 549 632 41,000  Level Salt Lake Center
Sun 12:59:22 PM 44.9717 -113.1978 116° Southeast 549 632 41,000  Level Salt Lake Center
Sun 01:00:24 PM 44.9078 -113.0136 116° Southeast 547 629 41,000  Level Salt Lake Center
Sun 01:01:27 PM 44.8317 -112.8003 117° Southeast 545 627 41,000  Level Salt Lake Center
Sun 01:02:29 PM 44.7661 -112.6181 117° Southeast 546 628 41,000  Level Salt Lake Center
Sun 01:03:31 PM 44.6914 -112.4058 116° Southeast 543 625 41,000  Level Salt Lake Center
Sun 01:04:33 PM 44.6253 -112.2264 117° Southeast 542 624 41,000  Level Salt Lake Center
Sun 01:05:35 PM 44.5494 -112.0161 117° Southeast 543 625 41,000  Level Salt Lake Center
Sun 01:06:37 PM 44.4839 -111.8369 117° Southeast 544 626 41,000  Level Salt Lake Center
Sun 01:07:39 PM 44.4069 -111.6308 118° Southeast 543 625 41,000  Level Salt Lake Center
Sun 01:08:41 PM 44.3417 -111.4536 117° Southeast 546 628 41,000  Level Salt Lake Center
Sun 01:09:43 PM 44.2644 -111.2464 117° Southeast 545 627 41,000  Level Salt Lake Center
Sun 01:10:45 PM 44.1969 -111.0686 118° Southeast 545 627 41,000  Level Salt Lake Center
Sun 01:11:47 PM 44.1181 -110.8592 118° Southeast 549 632 41,000  Level Salt Lake Center
Sun 01:12:49 PM 44.0494 -110.6808 118° Southeast 549 632 41,000  Level Salt Lake Center
Sun 01:14:53 PM 43.9008 -110.2911 118° Southeast 553 636 41,000  Level Salt Lake Center
Sun 01:15:55 PM 43.8194 -110.0836 118° Southeast 550 633 41,000  Level Salt Lake Center
Sun 01:16:57 PM 43.7500 -109.9056 118° Southeast 549 632 41,000  Level Salt Lake Center
Sun 01:17:59 PM 43.6669 -109.6994 119° Southeast 549 632 41,000  Level Salt Lake Center
Sun 01:19:01 PM 43.5964 -109.5222 119° Southeast 550 633 41,000  Level Salt Lake Center
Sun 01:20:03 PM 43.5133 -109.3153 119° Southeast 551 634 41,000  Level Salt Lake Center
Sun 01:21:05 PM 43.4394 -109.1322 119° Southeast 551 634 41,000  Level Salt Lake Center
Sun 01:22:07 PM 43.3675 -108.9569 119° Southeast 550 633 41,000  Level Salt Lake Center
Sun 01:23:09 PM 43.2839 -108.7503 119° Southeast 553 636 41,000  Level Salt Lake Center
Sun 01:24:11 PM 43.2114 -108.5753 120° Southeast 551 634 41,000  Level Salt Lake Center
Sun 01:25:13 PM 43.1275 -108.3697 119° Southeast 553 636 41,000  Level Salt Lake Center
Sun 01:26:15 PM 43.0544 -108.1956 120° Southeast 552 635 41,000  Level Salt Lake Center
Sun 01:27:17 PM 42.9692 -107.9911 120° Southeast 553 636 41,000  Level Salt Lake Center
Sun 01:28:19 PM 42.8953 -107.8167 120° Southeast 555 639 41,000  Level Salt Lake Center
Sun 01:29:21 PM 42.8214 -107.6419 120° Southeast 554 638 41,000  Level Salt Lake Center
Sun 01:30:23 PM 42.7347 -107.4400 120° Southeast 553 636 41,000  Level Salt Lake Center
Sun 01:31:25 PM 42.6603 -107.2653 120° Southeast 556 640 41,000  Level Salt Lake Center
Sun 01:32:11 PM 42.5947 -107.1175 121° Southeast 559 643 41,000  Level Denver Center
Sun 01:33:13 PM 42.5075 -106.9172 121° Southeast 555 639 41,000  Level Denver Center
Sun 01:34:15 PM 42.4283 -106.7367 121° Southeast 557 641 41,000  Level Denver Center
Sun 01:35:17 PM 42.3422 -106.5433 121° Southeast 556 640 41,000  Level Denver Center
Sun 01:37:21 PM 42.1864 -106.1933 121° Southeast 558 642 41,000  Level Denver Center
Sun 01:38:23 PM 42.0972 -105.9933 121° Southeast 560 644 41,000  Level Denver Center
Sun 01:39:25 PM 42.0189 -105.8222 122° Southeast 562 647 41,000  Level Denver Center
Sun 01:40:28 PM 41.9289 -105.6244 121° Southeast 559 643 41,000  Level Denver Center
Sun 01:41:30 PM 41.8508 -105.4544 122° Southeast 561 646 41,000  Level Denver Center
Sun 01:42:31 PM 41.7869 -105.3136 121° Southeast 558 642 41,000  Level Denver Center
Sun 01:43:34 PM 41.6814 -105.0886 122° Southeast 561 646 41,000  Level Denver Center
Sun 01:44:36 PM 41.5906 -104.8914 122° Southeast 559 643 41,000  Level Denver Center
Sun 01:45:38 PM 41.5103 -104.7219 122° Southeast 564 649 41,000  Level Denver Center
Sun 01:46:40 PM 41.4189 -104.5278 122° Southeast 561 646 41,000  Level Denver Center
Sun 01:47:42 PM 41.3397 -104.3606 122° Southeast 560 644 41,000  Level Denver Center
Sun 01:48:44 PM 41.2461 -104.1647 122° Southeast 563 648 41,000  Level Denver Center
Sun 01:49:46 PM 41.1656 -103.9978 123° Southeast 561 646 41,000  Level Denver Center
Sun 01:50:48 PM 41.0711 -103.8019 123° Southeast 565 650 41,000  Level Denver Center
Sun 01:51:50 PM 40.9900 -103.6342 123° Southeast 566 651 41,000  Level Denver Center
Sun 01:52:52 PM 40.8939 -103.4397 123° Southeast 567 652 41,000  Level Denver Center
Sun 01:53:54 PM 40.8108 -103.2731 123° Southeast 567 652 41,000  Level Denver Center
Sun 01:54:56 PM 40.7156 -103.0775 123° Southeast 568 654 41,000  Level Denver Center
Sun 01:55:58 PM 40.6386 -102.9214 123° Southeast 566 651 41,000  Level Denver Center
Sun 01:58:03 PM 40.4578 -102.5644 124° Southeast 566 651 41,000  Level Denver Center
Sun 01:59:05 PM 40.3603 -102.3717 124° Southeast 569 655 41,000  Level Denver Center
Sun 02:00:07 PM 40.2775 -102.2069 123° Southeast 567 652 41,000  Level Denver Center
Sun 02:01:09 PM 40.1794 -102.0167 124° Southeast 567 652 41,000  Level Denver Center
Sun 02:02:11 PM 40.0967 -101.8561 124° Southeast 561 646 41,000  Level Denver Center
Sun 02:03:13 PM 39.9997 -101.6683 124° Southeast 560 644 41,000  Level Denver Center
Sun 02:04:27 PM 39.9167 -101.5075 124° Southeast 560 644 41,000  Level Denver Center
Sun 02:05:29 PM 39.8044 -101.2950 124° Southeast 560 644 41,000  Level Denver Center
Sun 02:06:31 PM 39.7067 -101.1089 124° Southeast 561 646 41,000  Level Denver Center
Sun 02:07:33 PM 39.6358 -100.9753 125° Southeast 563 648 41,000  Level Denver Center
Sun 02:08:36 PM 39.5239 -100.7631 124° Southeast 561 646 41,000  Level Denver Center
Sun 02:09:38 PM 39.4389 -100.6058 125° Southeast 560 644 41,000  Level Denver Center
Sun 02:10:40 PM 39.3394 -100.4219 125° Southeast 559 643 41,000  Level Denver Center
Sun 02:11:42 PM 39.2533 -100.2614 125° Southeast 565 650 41,000  Level Denver Center
Sun 02:13:46 PM 39.0667 -99.9189 125° Southeast 569 655 41,000  Level Kansas City Center
Sun 02:14:48 PM 38.9806 -99.7628 125° Southeast 563 648 41,000  Level Kansas City Center
Sun 02:15:50 PM 38.8794 -99.5792 125° Southeast 562 647 41,000 -484 Level Kansas City Center
Sun 02:16:52 PM 38.7953 -99.4289 126° Southeast 556 640 40,000 -1,415 Descending Kansas City Center
Sun 02:17:53 PM 38.7078 -99.2725 126° Southeast 542 624 38,100 -2,195 Descending Kansas City Center
Sun 02:18:55 PM 38.6175 -99.1122 126° Southeast 552 635 35,500 -3,097 Descending Kansas City Center
Sun 02:19:57 PM 38.5064 -98.9144 126° Southeast 568 654 31,700 -3,435 Descending Kansas City Center
Sun 02:20:59 PM 38.4122 -98.7461 125° Southeast 582 670 28,400 -3,097 Descending Kansas City Center
Sun 02:22:01 PM 38.3203 -98.5856 126° Southeast 566 651 25,300 -2,613 Descending Kansas City Center
Sun 02:23:03 PM 38.2331 -98.4336 126° Southeast 538 619 23,000 -1,302 Descending Kansas City Center
Sun 02:23:47 PM 38.1603 -98.3150 128° Southeast 519 597 23,000 -114 Level Kansas City Center
Sun 02:24:48 PM 38.0778 -98.1675 125° Southeast 512 589 22,800 -1,918 Descending Kansas City Center
Sun 02:25:49 PM 37.9953 -98.0231 126° Southeast 501 577 19,100 -3,669 Descending Kansas City Center
Sun 02:26:49 PM 37.9181 -97.8911 127° Southeast 470 541 15,400 -3,620 Descending Kansas City Center
Sun 02:27:50 PM 37.8408 -97.7622 127° Southeast 409 471 11,800 -2,705 Descending Kansas City Center
Sun 02:28:51 PM 37.7758 -97.6769 134° Southeast 305 351 9,900 -2,557 Descending Kansas City Center
Sun 02:29:52 PM 37.7061 -97.6267 150° Southeast 278 320 6,600 -2,826 Descending Kansas City Center
Sun 02:30:52 PM 37.6356 -97.5925 159° South 269 310 4,200 -1,785 Descending Kansas City Center
Sun 02:31:53 PM 37.5692 -97.5575 157° South 241 277 3,000 -595 Descending Kansas City Center
Sun 02:32:53 PM 37.5372 -97.5097 130° Southeast 201 231 3,000  Level Kansas City Center
Sun 02:33:23 PM 37.5481 -97.4833 63° Northeast 221 254 3,000 -197 Level Kansas City Center
Sun 02:33:54 PM 37.5642 -97.4633 45° Northeast 118 136 2,800 -393 Descending Kansas City Center
Sun 02:34:24 PM 37.5742 -97.4583 22° Northeast 160 184 2,600 -492 Descending Kansas City Center
Sun 02:34:55 PM 37.5922 -97.4511 18° North 96 110 2,300 -484 Descending Kansas City Center
Sun 02:35:26 PM 37.6031 -97.4458 21° North 125 144 2,100 -452 Descending Kansas City Center
Sun 02:36:28 PM 37.6328 -97.4311 21° North 117 135 1,600 -484 Descending Kansas City Center

Login

Don't have an account? Register now (free) for customized features, flight alerts, and more!